sensor_id;sensor_type;location;lat;lon;timestamp;P1;durP1;ratioP1;P2;durP2;ratioP2
1685;SDS011;840;47.980;7.830;2022-09-24T00:01:31;5.23;;;4.83;;
1685;SDS011;840;47.980;7.830;2022-09-24T00:04:00;5.47;;;5.07;;
1685;SDS011;840;47.980;7.830;2022-09-24T00:06:30;5.63;;;5.03;;
1685;SDS011;840;47.980;7.830;2022-09-24T00:09:00;5.27;;;4.70;;
1685;SDS011;840;47.980;7.830;2022-09-24T00:11:28;6.33;;;5.07;;
1685;SDS011;840;47.980;7.830;2022-09-24T00:13:55;6.17;;;4.80;;
1685;SDS011;840;47.980;7.830;2022-09-24T00:16:24;4.40;;;4.10;;
1685;SDS011;840;47.980;7.830;2022-09-24T00:18:54;5.97;;;5.40;;
1685;SDS011;840;47.980;7.830;2022-09-24T00:21:21;5.20;;;4.70;;
1685;SDS011;840;47.980;7.830;2022-09-24T00:23:50;4.97;;;4.47;;
1685;SDS011;840;47.980;7.830;2022-09-24T00:26:17;5.07;;;4.67;;
1685;SDS011;840;47.980;7.830;2022-09-24T00:29:04;5.70;;;5.20;;
1685;SDS011;840;47.980;7.830;2022-09-24T00:31:32;7.73;;;6.57;;
1685;SDS011;840;47.980;7.830;2022-09-24T00:33:58;7.80;;;6.10;;
1685;SDS011;840;47.980;7.830;2022-09-24T00:36:25;8.27;;;6.70;;
1685;SDS011;840;47.980;7.830;2022-09-24T00:38:57;8.40;;;7.20;;
1685;SDS011;840;47.980;7.830;2022-09-24T00:41:25;7.07;;;6.10;;
1685;SDS011;840;47.980;7.830;2022-09-24T00:43:54;9.97;;;7.43;;
1685;SDS011;840;47.980;7.830;2022-09-24T00:46:24;7.90;;;6.33;;
1685;SDS011;840;47.980;7.830;2022-09-24T00:48:55;8.20;;;6.50;;
1685;SDS011;840;47.980;7.830;2022-09-24T00:51:26;7.27;;;6.67;;
1685;SDS011;840;47.980;7.830;2022-09-24T00:53:55;7.93;;;7.13;;
1685;SDS011;840;47.980;7.830;2022-09-24T00:56:25;10.13;;;6.77;;
1685;SDS011;840;47.980;7.830;2022-09-24T00:58:54;9.30;;;6.97;;
1685;SDS011;840;47.980;7.830;2022-09-24T01:01:23;6.53;;;5.90;;
1685;SDS011;840;47.980;7.830;2022-09-24T01:03:51;9.57;;;6.83;;
1685;SDS011;840;47.980;7.830;2022-09-24T01:06:20;9.10;;;7.10;;
1685;SDS011;840;47.980;7.830;2022-09-24T01:08:47;7.23;;;6.63;;
1685;SDS011;840;47.980;7.830;2022-09-24T01:11:20;9.53;;;6.50;;
1685;SDS011;840;47.980;7.830;2022-09-24T01:16:59;7.83;;;6.07;;
1685;SDS011;840;47.980;7.830;2022-09-24T01:19:42;7.37;;;6.83;;
1685;SDS011;840;47.980;7.830;2022-09-24T01:22:30;7.53;;;6.43;;
1685;SDS011;840;47.980;7.830;2022-09-24T01:25:10;8.03;;;7.00;;
1685;SDS011;840;47.980;7.830;2022-09-24T01:27:47;7.73;;;6.97;;
1685;SDS011;840;47.980;7.830;2022-09-24T01:30:26;7.43;;;6.77;;
1685;SDS011;840;47.980;7.830;2022-09-24T01:32:56;8.27;;;7.47;;
1685;SDS011;840;47.980;7.830;2022-09-24T01:35:27;8.13;;;7.10;;
1685;SDS011;840;47.980;7.830;2022-09-24T01:37:59;8.77;;;6.83;;
1685;SDS011;840;47.980;7.830;2022-09-24T01:40:29;7.90;;;7.10;;
1685;SDS011;840;47.980;7.830;2022-09-24T01:42:58;6.17;;;5.57;;
1685;SDS011;840;47.980;7.830;2022-09-24T01:45:28;9.97;;;7.90;;
1685;SDS011;840;47.980;7.830;2022-09-24T01:47:57;8.17;;;7.03;;
1685;SDS011;840;47.980;7.830;2022-09-24T01:50:25;7.10;;;6.50;;
1685;SDS011;840;47.980;7.830;2022-09-24T01:52:56;6.90;;;6.20;;
1685;SDS011;840;47.980;7.830;2022-09-24T01:55:29;8.53;;;7.10;;
1685;SDS011;840;47.980;7.830;2022-09-24T01:58:01;7.70;;;5.90;;
1685;SDS011;840;47.980;7.830;2022-09-24T02:00:34;6.70;;;6.07;;
1685;SDS011;840;47.980;7.830;2022-09-24T02:03:04;5.43;;;4.93;;
1685;SDS011;840;47.980;7.830;2022-09-24T02:05:37;7.60;;;6.90;;
1685;SDS011;840;47.980;7.830;2022-09-24T02:08:07;7.87;;;7.27;;
1685;SDS011;840;47.980;7.830;2022-09-24T02:10:39;8.43;;;7.07;;
1685;SDS011;840;47.980;7.830;2022-09-24T02:13:11;8.20;;;7.60;;
1685;SDS011;840;47.980;7.830;2022-09-24T02:15:41;8.03;;;6.40;;
1685;SDS011;840;47.980;7.830;2022-09-24T02:18:11;8.67;;;6.70;;
1685;SDS011;840;47.980;7.830;2022-09-24T02:20:41;5.30;;;4.50;;
1685;SDS011;840;47.980;7.830;2022-09-24T02:23:09;3.40;;;3.20;;
1685;SDS011;840;47.980;7.830;2022-09-24T02:25:40;4.73;;;3.10;;
1685;SDS011;840;47.980;7.830;2022-09-24T02:28:12;2.33;;;2.13;;
1685;SDS011;840;47.980;7.830;2022-09-24T02:30:42;3.07;;;2.80;;
1685;SDS011;840;47.980;7.830;2022-09-24T02:33:12;3.50;;;3.20;;
1685;SDS011;840;47.980;7.830;2022-09-24T02:36:01;7.77;;;3.70;;
1685;SDS011;840;47.980;7.830;2022-09-24T02:38:27;2.90;;;2.70;;
1685;SDS011;840;47.980;7.830;2022-09-24T02:40:54;4.07;;;3.40;;
1685;SDS011;840;47.980;7.830;2022-09-24T02:43:22;4.23;;;3.70;;
1685;SDS011;840;47.980;7.830;2022-09-24T02:45:51;4.30;;;3.80;;
1685;SDS011;840;47.980;7.830;2022-09-24T02:48:18;5.03;;;4.40;;
1685;SDS011;840;47.980;7.830;2022-09-24T02:50:45;4.93;;;4.47;;
1685;SDS011;840;47.980;7.830;2022-09-24T02:53:11;3.60;;;3.30;;
1685;SDS011;840;47.980;7.830;2022-09-24T02:55:38;6.37;;;3.87;;
1685;SDS011;840;47.980;7.830;2022-09-24T02:58:05;3.67;;;3.43;;
1685;SDS011;840;47.980;7.830;2022-09-24T03:00:32;5.10;;;4.70;;
1685;SDS011;840;47.980;7.830;2022-09-24T03:03:00;5.00;;;4.60;;
1685;SDS011;840;47.980;7.830;2022-09-24T03:05:27;4.93;;;4.60;;
1685;SDS011;840;47.980;7.830;2022-09-24T03:07:54;4.07;;;3.77;;
1685;SDS011;840;47.980;7.830;2022-09-24T03:10:22;4.67;;;4.37;;
1685;SDS011;840;47.980;7.830;2022-09-24T03:12:50;4.00;;;3.70;;
1685;SDS011;840;47.980;7.830;2022-09-24T03:15:16;3.67;;;3.00;;
1685;SDS011;840;47.980;7.830;2022-09-24T03:17:43;3.97;;;3.67;;
1685;SDS011;840;47.980;7.830;2022-09-24T03:20:11;3.63;;;3.33;;
1685;SDS011;840;47.980;7.830;2022-09-24T03:22:38;3.83;;;3.53;;
1685;SDS011;840;47.980;7.830;2022-09-24T03:25:05;5.03;;;3.70;;
1685;SDS011;840;47.980;7.830;2022-09-24T03:27:32;4.73;;;3.00;;
1685;SDS011;840;47.980;7.830;2022-09-24T03:30:00;3.90;;;3.57;;
1685;SDS011;840;47.980;7.830;2022-09-24T03:32:44;3.60;;;3.30;;
1685;SDS011;840;47.980;7.830;2022-09-24T03:35:14;4.53;;;3.03;;
1685;SDS011;840;47.980;7.830;2022-09-24T03:37:41;3.53;;;2.83;;
1685;SDS011;840;47.980;7.830;2022-09-24T03:40:08;7.60;;;2.70;;
1685;SDS011;840;47.980;7.830;2022-09-24T03:42:35;2.70;;;2.50;;
1685;SDS011;840;47.980;7.830;2022-09-24T03:45:02;4.30;;;2.60;;
1685;SDS011;840;47.980;7.830;2022-09-24T03:47:29;3.37;;;3.17;;
1685;SDS011;840;47.980;7.830;2022-09-24T03:49:56;3.17;;;2.53;;
1685;SDS011;840;47.980;7.830;2022-09-24T03:52:24;3.03;;;2.83;;
1685;SDS011;840;47.980;7.830;2022-09-24T03:54:51;3.03;;;2.60;;
1685;SDS011;840;47.980;7.830;2022-09-24T03:57:18;2.10;;;1.90;;
1685;SDS011;840;47.980;7.830;2022-09-24T03:59:45;2.70;;;2.00;;
1685;SDS011;840;47.980;7.830;2022-09-24T04:02:11;2.47;;;2.27;;
1685;SDS011;840;47.980;7.830;2022-09-24T04:04:38;2.90;;;2.70;;
1685;SDS011;840;47.980;7.830;2022-09-24T04:07:05;2.30;;;2.10;;
1685;SDS011;840;47.980;7.830;2022-09-24T04:09:33;2.63;;;2.43;;
1685;SDS011;840;47.980;7.830;2022-09-24T04:12:00;2.33;;;2.13;;
1685;SDS011;840;47.980;7.830;2022-09-24T04:14:27;4.93;;;1.83;;
1685;SDS011;840;47.980;7.830;2022-09-24T04:16:54;2.73;;;2.07;;
1685;SDS011;840;47.980;7.830;2022-09-24T04:19:21;2.10;;;2.00;;
1685;SDS011;840;47.980;7.830;2022-09-24T04:21:48;2.33;;;2.13;;
1685;SDS011;840;47.980;7.830;2022-09-24T04:24:15;2.50;;;2.30;;
1685;SDS011;840;47.980;7.830;2022-09-24T04:26:43;2.43;;;2.27;;
1685;SDS011;840;47.980;7.830;2022-09-24T04:29:10;2.53;;;1.57;;
1685;SDS011;840;47.980;7.830;2022-09-24T04:31:37;2.30;;;2.10;;
1685;SDS011;840;47.980;7.830;2022-09-24T04:34:04;2.73;;;2.53;;
1685;SDS011;840;47.980;7.830;2022-09-24T04:36:31;2.20;;;2.00;;
1685;SDS011;840;47.980;7.830;2022-09-24T04:38:58;3.23;;;2.20;;
1685;SDS011;840;47.980;7.830;2022-09-24T04:41:27;2.00;;;1.90;;
1685;SDS011;840;47.980;7.830;2022-09-24T04:43:56;2.20;;;2.00;;
1685;SDS011;840;47.980;7.830;2022-09-24T04:46:23;2.77;;;2.37;;
1685;SDS011;840;47.980;7.830;2022-09-24T04:48:50;2.20;;;2.10;;
1685;SDS011;840;47.980;7.830;2022-09-24T04:51:17;2.77;;;2.57;;
1685;SDS011;840;47.980;7.830;2022-09-24T04:53:45;2.30;;;2.10;;
1685;SDS011;840;47.980;7.830;2022-09-24T04:56:14;3.43;;;1.90;;
1685;SDS011;840;47.980;7.830;2022-09-24T04:58:41;2.00;;;1.90;;
1685;SDS011;840;47.980;7.830;2022-09-24T05:01:10;3.10;;;2.90;;
1685;SDS011;840;47.980;7.830;2022-09-24T05:03:37;2.80;;;2.40;;
1685;SDS011;840;47.980;7.830;2022-09-24T05:06:04;3.87;;;2.80;;
1685;SDS011;840;47.980;7.830;2022-09-24T05:08:31;2.60;;;2.40;;
1685;SDS011;840;47.980;7.830;2022-09-24T05:10:58;2.20;;;2.00;;
1685;SDS011;840;47.980;7.830;2022-09-24T05:13:26;2.67;;;2.47;;
1685;SDS011;840;47.980;7.830;2022-09-24T05:15:53;2.30;;;2.10;;
1685;SDS011;840;47.980;7.830;2022-09-24T05:18:21;2.20;;;2.00;;
1685;SDS011;840;47.980;7.830;2022-09-24T05:20:48;2.83;;;2.63;;
1685;SDS011;840;47.980;7.830;2022-09-24T05:23:14;3.57;;;2.23;;
1685;SDS011;840;47.980;7.830;2022-09-24T05:25:42;2.03;;;1.87;;
1685;SDS011;840;47.980;7.830;2022-09-24T05:28:22;2.97;;;2.70;;
1685;SDS011;840;47.980;7.830;2022-09-24T05:30:49;2.93;;;2.63;;
1685;SDS011;840;47.980;7.830;2022-09-24T05:33:16;3.77;;;2.70;;
1685;SDS011;840;47.980;7.830;2022-09-24T05:35:44;2.60;;;2.40;;
1685;SDS011;840;47.980;7.830;2022-09-24T05:38:18;2.63;;;2.43;;
1685;SDS011;840;47.980;7.830;2022-09-24T05:40:45;2.93;;;2.37;;
1685;SDS011;840;47.980;7.830;2022-09-24T05:43:14;2.80;;;2.17;;
1685;SDS011;840;47.980;7.830;2022-09-24T05:45:43;2.13;;;2.03;;
1685;SDS011;840;47.980;7.830;2022-09-24T05:48:10;3.33;;;2.53;;
1685;SDS011;840;47.980;7.830;2022-09-24T05:50:36;3.50;;;3.20;;
1685;SDS011;840;47.980;7.830;2022-09-24T05:53:04;2.43;;;2.23;;
1685;SDS011;840;47.980;7.830;2022-09-24T05:55:32;2.33;;;2.13;;
1685;SDS011;840;47.980;7.830;2022-09-24T05:58:02;3.00;;;2.70;;
1685;SDS011;840;47.980;7.830;2022-09-24T06:00:30;4.10;;;2.80;;
1685;SDS011;840;47.980;7.830;2022-09-24T06:03:00;2.90;;;2.33;;
1685;SDS011;840;47.980;7.830;2022-09-24T06:05:29;2.83;;;2.63;;
1685;SDS011;840;47.980;7.830;2022-09-24T06:07:58;2.40;;;2.20;;
1685;SDS011;840;47.980;7.830;2022-09-24T06:10:26;3.10;;;2.60;;
1685;SDS011;840;47.980;7.830;2022-09-24T06:12:53;3.00;;;2.30;;
1685;SDS011;840;47.980;7.830;2022-09-24T06:15:20;3.03;;;2.77;;
1685;SDS011;840;47.980;7.830;2022-09-24T06:17:48;2.30;;;2.10;;
1685;SDS011;840;47.980;7.830;2022-09-24T06:20:18;2.80;;;2.50;;
1685;SDS011;840;47.980;7.830;2022-09-24T06:22:45;4.43;;;3.43;;
1685;SDS011;840;47.980;7.830;2022-09-24T06:25:12;3.20;;;2.67;;
1685;SDS011;840;47.980;7.830;2022-09-24T06:27:40;3.00;;;2.70;;
1685;SDS011;840;47.980;7.830;2022-09-24T06:30:07;2.80;;;2.60;;
1685;SDS011;840;47.980;7.830;2022-09-24T06:32:35;3.20;;;2.60;;
1685;SDS011;840;47.980;7.830;2022-09-24T06:35:02;2.23;;;2.03;;
1685;SDS011;840;47.980;7.830;2022-09-24T06:37:30;2.23;;;2.03;;
1685;SDS011;840;47.980;7.830;2022-09-24T06:39:58;2.80;;;2.60;;
1685;SDS011;840;47.980;7.830;2022-09-24T06:42:24;2.80;;;2.60;;
1685;SDS011;840;47.980;7.830;2022-09-24T06:44:59;2.77;;;2.57;;
1685;SDS011;840;47.980;7.830;2022-09-24T06:47:28;3.67;;;2.27;;
1685;SDS011;840;47.980;7.830;2022-09-24T06:49:55;3.10;;;2.80;;
1685;SDS011;840;47.980;7.830;2022-09-24T06:52:22;2.33;;;2.00;;
1685;SDS011;840;47.980;7.830;2022-09-24T06:54:49;2.93;;;2.73;;
1685;SDS011;840;47.980;7.830;2022-09-24T06:57:19;3.10;;;2.63;;
1685;SDS011;840;47.980;7.830;2022-09-24T06:59:46;3.70;;;2.73;;
1685;SDS011;840;47.980;7.830;2022-09-24T07:02:16;3.13;;;2.80;;
1685;SDS011;840;47.980;7.830;2022-09-24T07:04:43;2.93;;;2.70;;
1685;SDS011;840;47.980;7.830;2022-09-24T07:07:10;5.00;;;2.43;;
1685;SDS011;840;47.980;7.830;2022-09-24T07:09:56;2.87;;;2.43;;
1685;SDS011;840;47.980;7.830;2022-09-24T07:12:24;4.80;;;3.00;;
1685;SDS011;840;47.980;7.830;2022-09-24T07:14:51;2.87;;;2.67;;
1685;SDS011;840;47.980;7.830;2022-09-24T07:17:19;2.70;;;2.50;;
1685;SDS011;840;47.980;7.830;2022-09-24T07:19:45;2.67;;;2.47;;
1685;SDS011;840;47.980;7.830;2022-09-24T07:22:12;2.63;;;2.43;;
1685;SDS011;840;47.980;7.830;2022-09-24T07:24:39;2.60;;;2.37;;
1685;SDS011;840;47.980;7.830;2022-09-24T07:27:06;3.00;;;2.70;;
1685;SDS011;840;47.980;7.830;2022-09-24T07:29:33;3.13;;;2.83;;
1685;SDS011;840;47.980;7.830;2022-09-24T07:32:00;4.93;;;3.00;;
1685;SDS011;840;47.980;7.830;2022-09-24T07:34:29;2.67;;;2.47;;
1685;SDS011;840;47.980;7.830;2022-09-24T07:36:57;3.50;;;2.50;;
1685;SDS011;840;47.980;7.830;2022-09-24T07:39:25;2.80;;;2.60;;
1685;SDS011;840;47.980;7.830;2022-09-24T07:41:52;2.80;;;2.60;;
1685;SDS011;840;47.980;7.830;2022-09-24T07:44:19;3.50;;;2.30;;
1685;SDS011;840;47.980;7.830;2022-09-24T07:46:47;2.40;;;1.73;;
1685;SDS011;840;47.980;7.830;2022-09-24T07:49:13;2.40;;;2.20;;
1685;SDS011;840;47.980;7.830;2022-09-24T07:51:42;2.40;;;2.20;;
1685;SDS011;840;47.980;7.830;2022-09-24T07:54:09;3.50;;;2.20;;
1685;SDS011;840;47.980;7.830;2022-09-24T07:56:36;3.37;;;3.17;;
1685;SDS011;840;47.980;7.830;2022-09-24T07:59:03;2.17;;;1.97;;
1685;SDS011;840;47.980;7.830;2022-09-24T08:01:31;2.37;;;2.17;;
1685;SDS011;840;47.980;7.830;2022-09-24T08:03:59;2.17;;;2.03;;
1685;SDS011;840;47.980;7.830;2022-09-24T08:06:26;2.37;;;2.20;;
1685;SDS011;840;47.980;7.830;2022-09-24T08:08:54;2.40;;;2.17;;
1685;SDS011;840;47.980;7.830;2022-09-24T08:11:21;3.53;;;2.50;;
1685;SDS011;840;47.980;7.830;2022-09-24T08:13:47;2.20;;;2.00;;
1685;SDS011;840;47.980;7.830;2022-09-24T08:16:15;2.30;;;2.20;;
1685;SDS011;840;47.980;7.830;2022-09-24T08:18:45;3.00;;;1.93;;
1685;SDS011;840;47.980;7.830;2022-09-24T08:21:14;2.13;;;1.93;;
1685;SDS011;840;47.980;7.830;2022-09-24T08:23:41;2.60;;;2.10;;
1685;SDS011;840;47.980;7.830;2022-09-24T08:26:10;2.53;;;2.20;;
1685;SDS011;840;47.980;7.830;2022-09-24T08:28:38;2.03;;;1.63;;
1685;SDS011;840;47.980;7.830;2022-09-24T08:31:06;3.47;;;2.13;;
1685;SDS011;840;47.980;7.830;2022-09-24T08:33:35;3.30;;;2.47;;
1685;SDS011;840;47.980;7.830;2022-09-24T08:36:03;2.67;;;2.47;;
1685;SDS011;840;47.980;7.830;2022-09-24T08:38:31;3.67;;;2.67;;
1685;SDS011;840;47.980;7.830;2022-09-24T08:41:00;2.43;;;2.23;;
1685;SDS011;840;47.980;7.830;2022-09-24T08:43:42;5.87;;;2.10;;
1685;SDS011;840;47.980;7.830;2022-09-24T08:46:16;2.30;;;2.10;;
1685;SDS011;840;47.980;7.830;2022-09-24T08:49:06;2.20;;;2.00;;
1685;SDS011;840;47.980;7.830;2022-09-24T08:51:45;2.00;;;1.90;;
1685;SDS011;840;47.980;7.830;2022-09-24T08:54:18;7.33;;;2.47;;
1685;SDS011;840;47.980;7.830;2022-09-24T08:56:48;2.30;;;2.10;;
1685;SDS011;840;47.980;7.830;2022-09-24T08:59:23;3.97;;;2.67;;
1685;SDS011;840;47.980;7.830;2022-09-24T09:01:54;3.70;;;2.30;;
1685;SDS011;840;47.980;7.830;2022-09-24T09:04:39;2.17;;;1.97;;
1685;SDS011;840;47.980;7.830;2022-09-24T09:07:19;2.20;;;2.10;;
1685;SDS011;840;47.980;7.830;2022-09-24T09:09:49;1.97;;;1.80;;
1685;SDS011;840;47.980;7.830;2022-09-24T09:12:22;2.77;;;2.30;;
1685;SDS011;840;47.980;7.830;2022-09-24T09:14:56;2.53;;;2.33;;
1685;SDS011;840;47.980;7.830;2022-09-24T09:17:35;2.17;;;1.63;;
1685;SDS011;840;47.980;7.830;2022-09-24T09:20:10;2.20;;;1.83;;
1685;SDS011;840;47.980;7.830;2022-09-24T09:22:42;2.27;;;2.17;;
1685;SDS011;840;47.980;7.830;2022-09-24T09:25:16;2.03;;;1.93;;
1685;SDS011;840;47.980;7.830;2022-09-24T09:27:48;2.47;;;2.23;;
1685;SDS011;840;47.980;7.830;2022-09-24T09:30:18;2.50;;;1.70;;
1685;SDS011;840;47.980;7.830;2022-09-24T09:32:53;2.00;;;1.80;;
1685;SDS011;840;47.980;7.830;2022-09-24T09:35:35;2.70;;;1.67;;
1685;SDS011;840;47.980;7.830;2022-09-24T09:38:12;2.20;;;1.70;;
1685;SDS011;840;47.980;7.830;2022-09-24T09:40:47;2.50;;;2.30;;
1685;SDS011;840;47.980;7.830;2022-09-24T09:43:18;2.10;;;1.90;;
1685;SDS011;840;47.980;7.830;2022-09-24T09:45:51;1.93;;;1.73;;
1685;SDS011;840;47.980;7.830;2022-09-24T09:48:24;2.43;;;2.33;;
1685;SDS011;840;47.980;7.830;2022-09-24T09:50:57;2.90;;;2.13;;
1685;SDS011;840;47.980;7.830;2022-09-24T09:53:28;1.50;;;1.40;;
1685;SDS011;840;47.980;7.830;2022-09-24T09:55:56;2.07;;;1.97;;
1685;SDS011;840;47.980;7.830;2022-09-24T09:58:25;2.37;;;2.00;;
1685;SDS011;840;47.980;7.830;2022-09-24T10:01:03;1.40;;;1.30;;
1685;SDS011;840;47.980;7.830;2022-09-24T10:03:32;1.80;;;1.70;;
1685;SDS011;840;47.980;7.830;2022-09-24T10:06:12;2.77;;;2.07;;
1685;SDS011;840;47.980;7.830;2022-09-24T10:08:48;1.60;;;1.50;;
1685;SDS011;840;47.980;7.830;2022-09-24T10:11:15;2.30;;;1.53;;
1685;SDS011;840;47.980;7.830;2022-09-24T10:13:43;4.43;;;1.70;;
1685;SDS011;840;47.980;7.830;2022-09-24T10:16:12;2.30;;;1.83;;
1685;SDS011;840;47.980;7.830;2022-09-24T10:18:41;2.00;;;1.90;;
1685;SDS011;840;47.980;7.830;2022-09-24T10:21:14;2.37;;;1.97;;
1685;SDS011;840;47.980;7.830;2022-09-24T10:23:56;2.97;;;2.27;;
1685;SDS011;840;47.980;7.830;2022-09-24T10:26:32;2.30;;;2.10;;
1685;SDS011;840;47.980;7.830;2022-09-24T10:29:01;1.60;;;1.50;;
1685;SDS011;840;47.980;7.830;2022-09-24T10:31:47;2.13;;;1.87;;
1685;SDS011;840;47.980;7.830;2022-09-24T10:34:19;1.77;;;1.67;;
1685;SDS011;840;47.980;7.830;2022-09-24T10:36:51;1.60;;;1.20;;
1685;SDS011;840;47.980;7.830;2022-09-24T10:39:19;1.40;;;1.30;;
1685;SDS011;840;47.980;7.830;2022-09-24T10:41:47;1.53;;;1.43;;
1685;SDS011;840;47.980;7.830;2022-09-24T10:44:15;1.73;;;1.43;;
1685;SDS011;840;47.980;7.830;2022-09-24T10:46:50;2.20;;;1.23;;
1685;SDS011;840;47.980;7.830;2022-09-24T10:49:32;2.07;;;1.87;;
1685;SDS011;840;47.980;7.830;2022-09-24T10:52:17;1.83;;;1.60;;
1685;SDS011;840;47.980;7.830;2022-09-24T10:54:56;1.73;;;1.63;;
1685;SDS011;840;47.980;7.830;2022-09-24T10:57:29;2.53;;;1.73;;
1685;SDS011;840;47.980;7.830;2022-09-24T11:00:06;1.50;;;1.40;;
1685;SDS011;840;47.980;7.830;2022-09-24T11:02:44;1.57;;;1.47;;
1685;SDS011;840;47.980;7.830;2022-09-24T11:05:36;1.63;;;1.53;;
1685;SDS011;840;47.980;7.830;2022-09-24T11:08:08;1.70;;;1.60;;
1685;SDS011;840;47.980;7.830;2022-09-24T11:11:00;2.43;;;1.30;;
1685;SDS011;840;47.980;7.830;2022-09-24T11:13:38;1.73;;;1.27;;
1685;SDS011;840;47.980;7.830;2022-09-24T11:16:17;2.50;;;1.47;;
1685;SDS011;840;47.980;7.830;2022-09-24T11:19:05;1.20;;;1.10;;
1685;SDS011;840;47.980;7.830;2022-09-24T11:21:48;1.30;;;1.20;;
1685;SDS011;840;47.980;7.830;2022-09-24T11:24:36;1.50;;;1.20;;
1685;SDS011;840;47.980;7.830;2022-09-24T11:27:21;1.40;;;1.30;;
1685;SDS011;840;47.980;7.830;2022-09-24T11:30:06;2.03;;;1.27;;
1685;SDS011;840;47.980;7.830;2022-09-24T11:32:37;1.60;;;1.20;;
1685;SDS011;840;47.980;7.830;2022-09-24T11:35:19;1.70;;;1.60;;
1685;SDS011;840;47.980;7.830;2022-09-24T11:37:54;1.70;;;1.60;;
1685;SDS011;840;47.980;7.830;2022-09-24T11:40:33;3.00;;;1.87;;
1685;SDS011;840;47.980;7.830;2022-09-24T11:43:14;1.73;;;1.63;;
1685;SDS011;840;47.980;7.830;2022-09-24T11:46:09;1.63;;;1.50;;
1685;SDS011;840;47.980;7.830;2022-09-24T11:48:50;4.53;;;1.70;;
1685;SDS011;840;47.980;7.830;2022-09-24T11:51:35;2.23;;;1.70;;
1685;SDS011;840;47.980;7.830;2022-09-24T11:54:13;2.30;;;2.00;;
1685;SDS011;840;47.980;7.830;2022-09-24T11:56:47;1.53;;;1.43;;
1685;SDS011;840;47.980;7.830;2022-09-24T11:59:19;1.83;;;1.73;;
1685;SDS011;840;47.980;7.830;2022-09-24T12:01:59;1.60;;;1.50;;
1685;SDS011;840;47.980;7.830;2022-09-24T12:04:35;5.43;;;1.80;;
1685;SDS011;840;47.980;7.830;2022-09-24T12:07:12;1.40;;;1.30;;
1685;SDS011;840;47.980;7.830;2022-09-24T12:09:42;2.00;;;1.90;;
1685;SDS011;840;47.980;7.830;2022-09-24T12:12:15;1.83;;;1.73;;
1685;SDS011;840;47.980;7.830;2022-09-24T12:14:45;2.67;;;2.47;;
1685;SDS011;840;47.980;7.830;2022-09-24T12:17:17;2.40;;;2.20;;
1685;SDS011;840;47.980;7.830;2022-09-24T12:19:48;1.83;;;1.73;;
1685;SDS011;840;47.980;7.830;2022-09-24T12:22:20;1.70;;;1.60;;
1685;SDS011;840;47.980;7.830;2022-09-24T12:24:48;2.10;;;2.00;;
1685;SDS011;840;47.980;7.830;2022-09-24T12:27:18;2.43;;;2.10;;
1685;SDS011;840;47.980;7.830;2022-09-24T12:29:51;2.70;;;2.37;;
1685;SDS011;840;47.980;7.830;2022-09-24T12:32:43;2.90;;;2.70;;
1685;SDS011;840;47.980;7.830;2022-09-24T12:35:24;1.73;;;1.63;;
1685;SDS011;840;47.980;7.830;2022-09-24T12:38:00;1.33;;;1.23;;
1685;SDS011;840;47.980;7.830;2022-09-24T12:40:36;2.10;;;1.80;;
1685;SDS011;840;47.980;7.830;2022-09-24T12:43:26;2.33;;;1.40;;
1685;SDS011;840;47.980;7.830;2022-09-24T12:45:57;1.57;;;1.47;;
1685;SDS011;840;47.980;7.830;2022-09-24T12:48:27;2.00;;;1.73;;
1685;SDS011;840;47.980;7.830;2022-09-24T12:50:55;1.80;;;1.70;;
1685;SDS011;840;47.980;7.830;2022-09-24T12:53:27;2.00;;;1.80;;
1685;SDS011;840;47.980;7.830;2022-09-24T12:55:58;1.77;;;1.67;;
1685;SDS011;840;47.980;7.830;2022-09-24T12:58:27;3.00;;;2.33;;
1685;SDS011;840;47.980;7.830;2022-09-24T13:01:11;2.23;;;1.73;;
1685;SDS011;840;47.980;7.830;2022-09-24T13:03:40;2.17;;;1.97;;
1685;SDS011;840;47.980;7.830;2022-09-24T13:06:21;3.13;;;1.83;;
1685;SDS011;840;47.980;7.830;2022-09-24T13:08:58;2.50;;;1.63;;
1685;SDS011;840;47.980;7.830;2022-09-24T13:11:29;2.10;;;1.93;;
1685;SDS011;840;47.980;7.830;2022-09-24T13:14:00;2.63;;;2.23;;
1685;SDS011;840;47.980;7.830;2022-09-24T13:16:35;2.03;;;1.57;;
1685;SDS011;840;47.980;7.830;2022-09-24T13:19:03;2.70;;;2.07;;
1685;SDS011;840;47.980;7.830;2022-09-24T13:21:36;2.40;;;2.20;;
1685;SDS011;840;47.980;7.830;2022-09-24T13:24:10;2.13;;;1.87;;
1685;SDS011;840;47.980;7.830;2022-09-24T13:26:38;4.40;;;2.37;;
1685;SDS011;840;47.980;7.830;2022-09-24T13:29:19;2.40;;;2.20;;
1685;SDS011;840;47.980;7.830;2022-09-24T13:31:49;2.40;;;1.63;;
1685;SDS011;840;47.980;7.830;2022-09-24T13:34:21;1.87;;;1.77;;
1685;SDS011;840;47.980;7.830;2022-09-24T13:36:53;1.67;;;1.57;;
1685;SDS011;840;47.980;7.830;2022-09-24T13:39:25;1.60;;;1.43;;
1685;SDS011;840;47.980;7.830;2022-09-24T13:41:58;2.00;;;1.70;;
1685;SDS011;840;47.980;7.830;2022-09-24T13:44:29;2.50;;;2.00;;
1685;SDS011;840;47.980;7.830;2022-09-24T13:47:00;2.13;;;1.93;;
1685;SDS011;840;47.980;7.830;2022-09-24T13:49:33;2.50;;;1.93;;
1685;SDS011;840;47.980;7.830;2022-09-24T13:52:07;2.77;;;2.57;;
1685;SDS011;840;47.980;7.830;2022-09-24T13:54:44;1.80;;;1.67;;
1685;SDS011;840;47.980;7.830;2022-09-24T13:57:18;2.03;;;1.83;;
1685;SDS011;840;47.980;7.830;2022-09-24T13:59:48;2.53;;;2.33;;
1685;SDS011;840;47.980;7.830;2022-09-24T14:02:26;1.43;;;1.33;;
1685;SDS011;840;47.980;7.830;2022-09-24T14:04:57;5.13;;;1.93;;
1685;SDS011;840;47.980;7.830;2022-09-24T14:07:25;2.23;;;2.13;;
1685;SDS011;840;47.980;7.830;2022-09-24T14:10:02;2.50;;;2.17;;
1685;SDS011;840;47.980;7.830;2022-09-24T14:12:30;2.30;;;2.10;;
1685;SDS011;840;47.980;7.830;2022-09-24T14:14:57;1.90;;;1.63;;
1685;SDS011;840;47.980;7.830;2022-09-24T14:17:24;2.40;;;2.17;;
1685;SDS011;840;47.980;7.830;2022-09-24T14:19:53;3.40;;;2.13;;
1685;SDS011;840;47.980;7.830;2022-09-24T14:22:21;3.83;;;2.20;;
1685;SDS011;840;47.980;7.830;2022-09-24T14:24:53;1.90;;;1.80;;
1685;SDS011;840;47.980;7.830;2022-09-24T14:27:23;2.13;;;1.93;;
1685;SDS011;840;47.980;7.830;2022-09-24T14:29:52;2.00;;;1.70;;
1685;SDS011;840;47.980;7.830;2022-09-24T14:32:23;2.37;;;1.70;;
1685;SDS011;840;47.980;7.830;2022-09-24T14:34:52;2.60;;;1.80;;
1685;SDS011;840;47.980;7.830;2022-09-24T14:37:22;2.63;;;2.43;;
1685;SDS011;840;47.980;7.830;2022-09-24T14:39:56;2.00;;;1.80;;
1685;SDS011;840;47.980;7.830;2022-09-24T14:42:30;2.77;;;2.40;;
1685;SDS011;840;47.980;7.830;2022-09-24T14:45:02;3.00;;;2.80;;
1685;SDS011;840;47.980;7.830;2022-09-24T14:47:33;2.43;;;2.20;;
1685;SDS011;840;47.980;7.830;2022-09-24T14:50:01;2.87;;;2.67;;
1685;SDS011;840;47.980;7.830;2022-09-24T14:52:30;3.40;;;3.10;;
1685;SDS011;840;47.980;7.830;2022-09-24T14:55:11;2.37;;;2.17;;
1685;SDS011;840;47.980;7.830;2022-09-24T14:57:41;2.77;;;2.30;;
1685;SDS011;840;47.980;7.830;2022-09-24T15:00:22;3.00;;;2.37;;
1685;SDS011;840;47.980;7.830;2022-09-24T15:02:52;2.43;;;2.07;;
1685;SDS011;840;47.980;7.830;2022-09-24T15:05:22;1.93;;;1.80;;
1685;SDS011;840;47.980;7.830;2022-09-24T15:07:51;2.93;;;2.70;;
1685;SDS011;840;47.980;7.830;2022-09-24T15:10:33;3.80;;;2.90;;
1685;SDS011;840;47.980;7.830;2022-09-24T15:13:11;6.33;;;1.93;;
1685;SDS011;840;47.980;7.830;2022-09-24T15:15:40;2.50;;;2.30;;
1685;SDS011;840;47.980;7.830;2022-09-24T15:18:08;2.13;;;1.90;;
1685;SDS011;840;47.980;7.830;2022-09-24T15:20:36;4.70;;;1.87;;
1685;SDS011;840;47.980;7.830;2022-09-24T15:23:03;2.00;;;1.80;;
1685;SDS011;840;47.980;7.830;2022-09-24T15:25:29;2.60;;;2.40;;
1685;SDS011;840;47.980;7.830;2022-09-24T15:27:56;1.30;;;1.20;;
1685;SDS011;840;47.980;7.830;2022-09-24T15:30:24;1.93;;;1.73;;
1685;SDS011;840;47.980;7.830;2022-09-24T15:32:51;2.27;;;1.93;;
1685;SDS011;840;47.980;7.830;2022-09-24T15:35:18;1.43;;;1.33;;
1685;SDS011;840;47.980;7.830;2022-09-24T15:37:45;1.73;;;1.50;;
1685;SDS011;840;47.980;7.830;2022-09-24T15:40:17;3.77;;;1.83;;
1685;SDS011;840;47.980;7.830;2022-09-24T15:42:47;1.90;;;1.80;;
1685;SDS011;840;47.980;7.830;2022-09-24T15:45:17;2.03;;;1.67;;
1685;SDS011;840;47.980;7.830;2022-09-24T15:47:47;1.93;;;1.50;;
1685;SDS011;840;47.980;7.830;2022-09-24T15:50:15;1.47;;;1.37;;
1685;SDS011;840;47.980;7.830;2022-09-24T15:52:43;2.17;;;1.80;;
1685;SDS011;840;47.980;7.830;2022-09-24T15:55:14;1.70;;;1.47;;
1685;SDS011;840;47.980;7.830;2022-09-24T15:57:43;1.60;;;1.50;;